sensor_id;sensor_type;location;lat;lon;timestamp;pressure;altitude;pressure_sealevel;temperature;humidity
74524;BME280;63074;44.696;10.358;2022-10-15T00:01:38;100018.38;;;14.27;100.00
74524;BME280;63074;44.696;10.358;2022-10-15T00:04:03;100026.97;;;14.19;100.00
74524;BME280;63074;44.696;10.358;2022-10-15T00:06:29;100020.44;;;14.10;100.00
74524;BME280;63074;44.696;10.358;2022-10-15T00:08:55;100022.09;;;14.16;100.00
74524;BME280;63074;44.696;10.358;2022-10-15T00:11:23;100019.13;;;14.17;100.00
74524;BME280;63074;44.696;10.358;2022-10-15T00:13:51;100013.28;;;14.31;100.00
74524;BME280;63074;44.696;10.358;2022-10-15T00:16:19;100017.13;;;14.40;100.00
74524;BME280;63074;44.696;10.358;2022-10-15T00:18:46;100020.09;;;14.38;100.00
74524;BME280;63074;44.696;10.358;2022-10-15T00:21:14;100017.13;;;14.40;100.00
74524;BME280;63074;44.696;10.358;2022-10-15T00:23:40;100021.66;;;14.29;100.00
74524;BME280;63074;44.696;10.358;2022-10-15T00:26:15;100014.63;;;14.28;100.00
74524;BME280;63074;44.696;10.358;2022-10-15T00:28:41;100018.69;;;14.31;100.00
74524;BME280;63074;44.696;10.358;2022-10-15T00:31:10;100018.47;;;14.37;100.00
74524;BME280;63074;44.696;10.358;2022-10-15T00:33:36;100018.28;;;14.49;100.00
74524;BME280;63074;44.696;10.358;2022-10-15T00:36:05;100022.06;;;14.48;100.00
74524;BME280;63074;44.696;10.358;2022-10-15T00:38:32;100015.19;;;14.72;100.00
74524;BME280;63074;44.696;10.358;2022-10-15T00:40:58;100017.91;;;14.82;100.00
74524;BME280;63074;44.696;10.358;2022-10-15T00:46:01;100019.50;;;14.78;100.00
74524;BME280;63074;44.696;10.358;2022-10-15T00:48:27;100018.66;;;14.68;100.00
74524;BME280;63074;44.696;10.358;2022-10-15T00:50:54;100013.25;;;14.68;100.00
74524;BME280;63074;44.696;10.358;2022-10-15T00:53:20;100022.75;;;14.75;100.00
74524;BME280;63074;44.696;10.358;2022-10-15T00:55:45;100010.28;;;14.74;100.00
74524;BME280;63074;44.696;10.358;2022-10-15T00:58:16;100012.97;;;14.64;100.00
74524;BME280;63074;44.696;10.358;2022-10-15T01:00:44;100014.78;;;14.53;100.00
74524;BME280;63074;44.696;10.358;2022-10-15T01:03:09;100003.16;;;14.53;100.00
74524;BME280;63074;44.696;10.358;2022-10-15T01:05:37;100011.50;;;14.46;100.00
74524;BME280;63074;44.696;10.358;2022-10-15T01:08:03;100004.72;;;14.44;100.00
74524;BME280;63074;44.696;10.358;2022-10-15T01:13:34;100012.63;;;14.50;100.00
74524;BME280;63074;44.696;10.358;2022-10-15T01:16:17;100000.09;;;14.39;100.00
74524;BME280;63074;44.696;10.358;2022-10-15T01:18:51;100001.66;;;14.30;100.00
74524;BME280;63074;44.696;10.358;2022-10-15T01:21:33;99992.72;;;14.30;100.00
74524;BME280;63074;44.696;10.358;2022-10-15T01:32:27;99974.09;;;13.91;100.00
74524;BME280;63074;44.696;10.358;2022-10-15T01:35:47;99981.63;;;13.89;100.00
74524;BME280;63074;44.696;10.358;2022-10-15T01:38:06;99977.38;;;13.98;100.00
74524;BME280;63074;44.696;10.358;2022-10-15T01:41:02;99973.09;;;14.02;100.00
74524;BME280;63074;44.696;10.358;2022-10-15T01:43:37;99970.00;;;13.89;100.00
74524;BME280;63074;44.696;10.358;2022-10-15T01:46:17;99964.44;;;14.00;100.00
74524;BME280;63074;44.696;10.358;2022-10-15T01:48:45;99957.63;;;13.93;100.00
74524;BME280;63074;44.696;10.358;2022-10-15T01:51:12;99953.66;;;14.05;100.00
74524;BME280;63074;44.696;10.358;2022-10-15T01:53:40;99949.59;;;14.03;100.00
74524;BME280;63074;44.696;10.358;2022-10-15T01:56:12;99948.06;;;14.17;100.00
74524;BME280;63074;44.696;10.358;2022-10-15T01:58:41;99953.38;;;14.02;100.00
74524;BME280;63074;44.696;10.358;2022-10-15T02:01:07;99950.28;;;13.88;100.00
74524;BME280;63074;44.696;10.358;2022-10-15T02:04:15;99956.50;;;13.89;100.00
74524;BME280;63074;44.696;10.358;2022-10-15T02:06:43;99956.06;;;14.02;100.00
74524;BME280;63074;44.696;10.358;2022-10-15T02:09:31;99960.59;;;13.91;100.00
74524;BME280;63074;44.696;10.358;2022-10-15T02:12:24;99946.47;;;13.79;100.00
74524;BME280;63074;44.696;10.358;2022-10-15T02:20:41;99952.69;;;13.79;100.00
74524;BME280;63074;44.696;10.358;2022-10-15T02:23:20;99955.94;;;13.81;100.00
74524;BME280;63074;44.696;10.358;2022-10-15T02:25:47;99949.16;;;13.79;100.00
74524;BME280;63074;44.696;10.358;2022-10-15T02:28:16;99955.09;;;13.76;100.00
74524;BME280;63074;44.696;10.358;2022-10-15T02:30:44;99953.16;;;13.71;100.00
74524;BME280;63074;44.696;10.358;2022-10-15T02:33:12;99955.38;;;13.79;100.00
74524;BME280;63074;44.696;10.358;2022-10-15T02:35:41;99965.06;;;13.75;100.00
74524;BME280;63074;44.696;10.358;2022-10-15T02:38:10;99968.06;;;13.79;100.00
74524;BME280;63074;44.696;10.358;2022-10-15T02:40:40;99968.59;;;13.76;100.00
74524;BME280;63074;44.696;10.358;2022-10-15T02:43:09;99964.56;;;13.78;100.00
74524;BME280;63074;44.696;10.358;2022-10-15T02:45:37;99971.53;;;13.74;100.00
74524;BME280;63074;44.696;10.358;2022-10-15T02:48:03;99963.53;;;13.84;100.00
74524;BME280;63074;44.696;10.358;2022-10-15T02:50:28;99966.75;;;13.81;100.00
74524;BME280;63074;44.696;10.358;2022-10-15T02:52:53;99961.91;;;13.89;100.00
74524;BME280;63074;44.696;10.358;2022-10-15T02:55:19;99964.13;;;13.97;100.00
74524;BME280;63074;44.696;10.358;2022-10-15T02:57:44;99962.22;;;13.92;100.00
74524;BME280;63074;44.696;10.358;2022-10-15T03:00:10;99962.50;;;13.96;100.00
74524;BME280;63074;44.696;10.358;2022-10-15T03:02:35;99958.13;;;13.90;100.00
74524;BME280;63074;44.696;10.358;2022-10-15T03:05:01;99960.88;;;13.95;100.00
74524;BME280;63074;44.696;10.358;2022-10-15T03:07:29;99956.81;;;13.92;100.00
74524;BME280;63074;44.696;10.358;2022-10-15T03:09:55;99944.63;;;13.84;100.00
74524;BME280;63074;44.696;10.358;2022-10-15T03:12:20;99940.00;;;13.80;100.00
74524;BME280;63074;44.696;10.358;2022-10-15T03:14:48;99939.72;;;13.81;100.00
74524;BME280;63074;44.696;10.358;2022-10-15T03:17:14;99930.47;;;13.72;100.00
74524;BME280;63074;44.696;10.358;2022-10-15T03:19:40;99933.09;;;13.62;100.00
74524;BME280;63074;44.696;10.358;2022-10-15T03:22:05;99927.78;;;13.72;100.00
74524;BME280;63074;44.696;10.358;2022-10-15T03:24:31;99920.69;;;13.66;100.00
74524;BME280;63074;44.696;10.358;2022-10-15T03:26:56;99914.50;;;13.66;100.00
74524;BME280;63074;44.696;10.358;2022-10-15T03:29:21;99922.44;;;13.45;100.00
74524;BME280;63074;44.696;10.358;2022-10-15T03:31:47;99919.88;;;13.34;100.00
74524;BME280;63074;44.696;10.358;2022-10-15T03:34:13;99919.00;;;13.23;100.00
74524;BME280;63074;44.696;10.358;2022-10-15T03:36:38;99916.97;;;13.13;100.00
74524;BME280;63074;44.696;10.358;2022-10-15T03:39:03;99920.13;;;13.05;100.00
74524;BME280;63074;44.696;10.358;2022-10-15T03:41:30;99919.25;;;13.00;100.00
74524;BME280;63074;44.696;10.358;2022-10-15T03:44:00;99924.72;;;13.05;100.00
74524;BME280;63074;44.696;10.358;2022-10-15T03:46:25;99920.44;;;13.09;100.00
74524;BME280;63074;44.696;10.358;2022-10-15T03:48:51;99920.19;;;13.10;100.00
74524;BME280;63074;44.696;10.358;2022-10-15T03:51:16;99911.13;;;13.16;100.00
74524;BME280;63074;44.696;10.358;2022-10-15T03:53:42;99920.19;;;13.10;100.00
74524;BME280;63074;44.696;10.358;2022-10-15T03:56:07;99913.22;;;13.14;100.00
74524;BME280;63074;44.696;10.358;2022-10-15T03:58:33;99913.72;;;13.11;100.00
74524;BME280;63074;44.696;10.358;2022-10-15T04:00:58;99910.47;;;13.09;100.00
74524;BME280;63074;44.696;10.358;2022-10-15T04:03:23;99917.13;;;13.02;100.00
74524;BME280;63074;44.696;10.358;2022-10-15T04:05:50;99914.22;;;13.08;100.00
74524;BME280;63074;44.696;10.358;2022-10-15T04:08:16;99918.06;;;13.12;100.00
74524;BME280;63074;44.696;10.358;2022-10-15T04:10:41;99918.81;;;13.08;100.00
74524;BME280;63074;44.696;10.358;2022-10-15T04:13:07;99921.72;;;13.01;100.00
74524;BME280;63074;44.696;10.358;2022-10-15T04:15:32;99931.34;;;12.92;100.00
74524;BME280;63074;44.696;10.358;2022-10-15T04:17:58;99930.22;;;12.88;100.00
74524;BME280;63074;44.696;10.358;2022-10-15T04:20:23;99930.88;;;13.00;100.00
74524;BME280;63074;44.696;10.358;2022-10-15T04:22:48;99928.72;;;13.02;100.00
74524;BME280;63074;44.696;10.358;2022-10-15T04:25:14;99929.41;;;13.14;100.00
74524;BME280;63074;44.696;10.358;2022-10-15T04:27:40;99934.69;;;13.26;100.00
74524;BME280;63074;44.696;10.358;2022-10-15T04:30:06;99935.56;;;13.37;100.00
74524;BME280;63074;44.696;10.358;2022-10-15T04:32:31;99942.44;;;13.49;100.00
74524;BME280;63074;44.696;10.358;2022-10-15T04:34:57;99937.88;;;13.50;100.00
74524;BME280;63074;44.696;10.358;2022-10-15T04:37:22;99938.94;;;13.49;100.00
74524;BME280;63074;44.696;10.358;2022-10-15T04:39:48;99939.53;;;13.56;100.00
74524;BME280;63074;44.696;10.358;2022-10-15T04:42:13;99938.94;;;13.49;100.00
74524;BME280;63074;44.696;10.358;2022-10-15T04:44:38;99933.03;;;13.57;100.00
74524;BME280;63074;44.696;10.358;2022-10-15T04:47:04;99935.41;;;13.48;100.00
74524;BME280;63074;44.696;10.358;2022-10-15T04:49:29;99923.25;;;13.46;100.00
74524;BME280;63074;44.696;10.358;2022-10-15T04:51:55;99927.31;;;13.48;100.00
74524;BME280;63074;44.696;10.358;2022-10-15T04:54:20;99934.19;;;13.34;100.00
74524;BME280;63074;44.696;10.358;2022-10-15T04:56:46;99924.47;;;13.33;100.00
74524;BME280;63074;44.696;10.358;2022-10-15T04:59:11;99924.00;;;13.14;100.00
74524;BME280;63074;44.696;10.358;2022-10-15T05:01:37;99921.81;;;13.11;100.00
74524;BME280;63074;44.696;10.358;2022-10-15T05:04:02;99929.91;;;13.11;100.00
74524;BME280;63074;44.696;10.358;2022-10-15T05:06:28;99934.38;;;13.01;100.00
74524;BME280;63074;44.696;10.358;2022-10-15T05:08:53;99927.34;;;13.00;100.00
74524;BME280;63074;44.696;10.358;2022-10-15T05:11:22;99933.56;;;13.00;100.00
74524;BME280;63074;44.696;10.358;2022-10-15T05:13:48;99944.16;;;13.07;100.00
74524;BME280;63074;44.696;10.358;2022-10-15T05:18:43;99951.50;;;13.11;100.00
74524;BME280;63074;44.696;10.358;2022-10-15T05:21:10;99951.63;;;13.22;100.00
74524;BME280;63074;44.696;10.358;2022-10-15T05:23:36;99954.88;;;13.02;100.00
74524;BME280;63074;44.696;10.358;2022-10-15T05:26:08;99950.91;;;13.31;100.00
74524;BME280;63074;44.696;10.358;2022-10-15T05:28:35;99957.28;;;13.47;100.00
74524;BME280;63074;44.696;10.358;2022-10-15T05:31:12;99961.50;;;13.38;100.00
74524;BME280;63074;44.696;10.358;2022-10-15T05:33:38;99964.25;;;13.43;100.00
74524;BME280;63074;44.696;10.358;2022-10-15T05:38:33;99957.84;;;13.00;100.00
74524;BME280;63074;44.696;10.358;2022-10-15T05:40:59;99951.97;;;12.81;100.00
74524;BME280;63074;44.696;10.358;2022-10-15T05:43:24;99940.00;;;12.72;100.00
74524;BME280;63074;44.696;10.358;2022-10-15T05:45:53;99939.19;;;12.72;100.00
74524;BME280;63074;44.696;10.358;2022-10-15T05:48:18;99940.31;;;12.76;100.00
74524;BME280;63074;44.696;10.358;2022-10-15T05:50:44;99944.75;;;12.87;100.00
74524;BME280;63074;44.696;10.358;2022-10-15T05:53:09;99948.47;;;12.81;100.00
74524;BME280;63074;44.696;10.358;2022-10-15T05:55:35;99940.94;;;12.83;100.00
74524;BME280;63074;44.696;10.358;2022-10-15T05:58:02;99943.44;;;12.90;100.00
74524;BME280;63074;44.696;10.358;2022-10-15T06:00:28;99953.41;;;12.89;100.00
74524;BME280;63074;44.696;10.358;2022-10-15T06:02:53;99954.88;;;12.97;100.00
74524;BME280;63074;44.696;10.358;2022-10-15T06:05:18;99966.91;;;12.89;100.00
74524;BME280;63074;44.696;10.358;2022-10-15T06:07:44;99980.78;;;12.98;100.00
74524;BME280;63074;44.696;10.358;2022-10-15T06:10:09;99974.53;;;13.19;100.00
74524;BME280;63074;44.696;10.358;2022-10-15T06:12:34;99973.31;;;13.32;100.00
74524;BME280;63074;44.696;10.358;2022-10-15T06:15:00;99969.53;;;13.33;100.00
74524;BME280;63074;44.696;10.358;2022-10-15T06:17:25;99963.88;;;13.34;100.00
74524;BME280;63074;44.696;10.358;2022-10-15T06:19:51;99964.00;;;13.17;100.00
74524;BME280;63074;44.696;10.358;2022-10-15T06:22:16;99961.09;;;13.24;100.00
74524;BME280;63074;44.696;10.358;2022-10-15T06:24:41;99966.19;;;13.47;100.00
74524;BME280;63074;44.696;10.358;2022-10-15T06:27:07;99972.78;;;13.62;100.00
74524;BME280;63074;44.696;10.358;2022-10-15T06:29:34;99972.31;;;13.70;100.00
74524;BME280;63074;44.696;10.358;2022-10-15T06:31:59;99971.94;;;13.56;100.00
74524;BME280;63074;44.696;10.358;2022-10-15T06:34:26;99972.00;;;13.66;100.00
74524;BME280;63074;44.696;10.358;2022-10-15T06:36:51;99970.97;;;13.72;100.00
74524;BME280;63074;44.696;10.358;2022-10-15T06:39:16;99968.69;;;13.91;100.00
74524;BME280;63074;44.696;10.358;2022-10-15T06:41:42;99973.34;;;14.01;100.00
74524;BME280;63074;44.696;10.358;2022-10-15T06:44:08;99971.81;;;14.10;100.00
74524;BME280;63074;44.696;10.358;2022-10-15T06:46:33;99979.41;;;14.18;100.00
74524;BME280;63074;44.696;10.358;2022-10-15T06:48:59;99985.88;;;14.12;100.00
74524;BME280;63074;44.696;10.358;2022-10-15T06:51:24;99991.31;;;14.22;100.00
74524;BME280;63074;44.696;10.358;2022-10-15T06:53:50;100000.00;;;14.24;100.00
74524;BME280;63074;44.696;10.358;2022-10-15T06:56:15;99994.41;;;14.36;100.00
74524;BME280;63074;44.696;10.358;2022-10-15T06:58:41;99989.28;;;14.39;100.00
74524;BME280;63074;44.696;10.358;2022-10-15T07:01:07;99988.53;;;14.49;100.00
74524;BME280;63074;44.696;10.358;2022-10-15T07:03:34;99988.84;;;14.52;100.00
74524;BME280;63074;44.696;10.358;2022-10-15T07:06:05;99990.53;;;14.64;100.00
74524;BME280;63074;44.696;10.358;2022-10-15T07:08:32;99987.22;;;14.57;100.00
74524;BME280;63074;44.696;10.358;2022-10-15T07:11:02;99991.38;;;14.74;100.00
74524;BME280;63074;44.696;10.358;2022-10-15T07:13:28;99989.84;;;15.04;100.00
74524;BME280;63074;44.696;10.358;2022-10-15T07:15:54;99988.25;;;15.13;100.00
74524;BME280;63074;44.696;10.358;2022-10-15T07:18:20;99990.22;;;15.28;100.00
74524;BME280;63074;44.696;10.358;2022-10-15T07:20:47;99995.09;;;15.41;100.00
74524;BME280;63074;44.696;10.358;2022-10-15T07:23:12;99988.88;;;15.50;100.00
74524;BME280;63074;44.696;10.358;2022-10-15T07:25:37;99995.97;;;15.57;100.00
74524;BME280;63074;44.696;10.358;2022-10-15T07:28:04;100003.00;;;15.58;100.00
74524;BME280;63074;44.696;10.358;2022-10-15T07:30:30;99995.97;;;15.72;100.00
74524;BME280;63074;44.696;10.358;2022-10-15T07:32:57;100001.66;;;15.75;100.00
74524;BME280;63074;44.696;10.358;2022-10-15T07:35:24;100004.63;;;15.74;100.00
74524;BME280;63074;44.696;10.358;2022-10-15T07:37:49;100000.03;;;15.74;100.00
74524;BME280;63074;44.696;10.358;2022-10-15T07:40:16;100005.47;;;15.84;100.00
74524;BME280;63074;44.696;10.358;2022-10-15T07:42:42;100004.91;;;15.82;100.00
74524;BME280;63074;44.696;10.358;2022-10-15T07:45:10;100011.94;;;15.68;100.00
74524;BME280;63074;44.696;10.358;2022-10-15T07:47:39;100010.06;;;15.79;100.00
74524;BME280;63074;44.696;10.358;2022-10-15T07:50:04;100013.03;;;15.93;100.00
74524;BME280;63074;44.696;10.358;2022-10-15T07:52:30;100010.88;;;16.00;100.00
74524;BME280;63074;44.696;10.358;2022-10-15T07:54:55;100016.56;;;15.98;100.00
74524;BME280;63074;44.696;10.358;2022-10-15T07:57:21;100021.16;;;16.08;100.00
74524;BME280;63074;44.696;10.358;2022-10-15T07:59:46;100024.41;;;16.20;100.00
74524;BME280;63074;44.696;10.358;2022-10-15T08:02:18;100028.47;;;16.33;100.00
74524;BME280;63074;44.696;10.358;2022-10-15T08:04:44;100030.34;;;16.37;100.00
74524;BME280;63074;44.696;10.358;2022-10-15T08:07:10;100034.94;;;16.47;100.00
74524;BME280;63074;44.696;10.358;2022-10-15T08:09:35;100037.34;;;16.53;100.00
74524;BME280;63074;44.696;10.358;2022-10-15T08:12:01;100042.19;;;16.82;100.00
74524;BME280;63074;44.696;10.358;2022-10-15T08:14:27;100029.41;;;16.87;100.00
74524;BME280;63074;44.696;10.358;2022-10-15T08:16:52;100029.16;;;16.89;100.00
74524;BME280;63074;44.696;10.358;2022-10-15T08:19:17;100032.13;;;16.93;100.00
74524;BME280;63074;44.696;10.358;2022-10-15T08:21:44;100029.53;;;17.21;100.00
74524;BME280;63074;44.696;10.358;2022-10-15T08:24:09;100026.72;;;17.42;100.00
74524;BME280;63074;44.696;10.358;2022-10-15T08:26:35;100017.13;;;17.54;100.00
74524;BME280;63074;44.696;10.358;2022-10-15T08:29:00;100025.00;;;17.56;100.00
74524;BME280;63074;44.696;10.358;2022-10-15T08:31:26;100021.94;;;17.68;100.00
74524;BME280;63074;44.696;10.358;2022-10-15T08:33:51;100026.25;;;17.74;100.00
74524;BME280;63074;44.696;10.358;2022-10-15T08:36:17;100029.50;;;17.76;100.00
74524;BME280;63074;44.696;10.358;2022-10-15T08:38:42;100027.91;;;17.70;100.00
74524;BME280;63074;44.696;10.358;2022-10-15T08:41:21;100039.06;;;17.68;100.00
74524;BME280;63074;44.696;10.358;2022-10-15T08:43:50;100042.94;;;17.96;100.00
74524;BME280;63074;44.696;10.358;2022-10-15T08:46:32;100047.03;;;17.94;100.00
74524;BME280;63074;44.696;10.358;2022-10-15T08:49:00;100052.78;;;18.21;100.00
74524;BME280;63074;44.696;10.358;2022-10-15T08:51:32;100051.63;;;18.61;100.00
74524;BME280;63074;44.696;10.358;2022-10-15T08:54:03;100049.94;;;18.65;100.00
74524;BME280;63074;44.696;10.358;2022-10-15T08:56:33;100042.34;;;18.33;100.00
74524;BME280;63074;44.696;10.358;2022-10-15T09:01:58;100044.22;;;18.38;100.00
74524;BME280;63074;44.696;10.358;2022-10-15T09:07:18;100052.38;;;18.91;100.00
74524;BME280;63074;44.696;10.358;2022-10-15T09:09:50;100053.94;;;18.73;100.00
74524;BME280;63074;44.696;10.358;2022-10-15T09:12:42;100054.41;;;18.80;100.00
74524;BME280;63074;44.696;10.358;2022-10-15T09:15:18;100055.72;;;18.82;97.40
74524;BME280;63074;44.696;10.358;2022-10-15T09:17:46;100052.25;;;18.48;99.03
74524;BME280;63074;44.696;10.358;2022-10-15T09:20:16;100057.06;;;18.56;100.00
74524;BME280;63074;44.696;10.358;2022-10-15T09:22:43;100055.44;;;18.84;100.00
74524;BME280;63074;44.696;10.358;2022-10-15T09:25:15;100059.25;;;18.83;97.16
74524;BME280;63074;44.696;10.358;2022-10-15T09:27:41;100055.44;;;18.84;97.67
74524;BME280;63074;44.696;10.358;2022-10-15T09:35:41;100054.81;;;18.92;100.00
74524;BME280;63074;44.696;10.358;2022-10-15T09:38:29;100054.34;;;18.85;97.74
74524;BME280;63074;44.696;10.358;2022-10-15T09:43:42;100056.16;;;18.95;97.62
74524;BME280;63074;44.696;10.358;2022-10-15T09:46:09;100068.88;;;18.99;98.76
74524;BME280;63074;44.696;10.358;2022-10-15T09:48:40;100062.22;;;18.86;99.61
74524;BME280;63074;44.696;10.358;2022-10-15T09:56:38;100070.28;;;19.39;100.00
74524;BME280;63074;44.696;10.358;2022-10-15T09:59:14;100070.94;;;19.31;97.41
74524;BME280;63074;44.696;10.358;2022-10-15T10:01:55;100069.03;;;19.32;98.14
74524;BME280;63074;44.696;10.358;2022-10-15T10:04:23;100064.25;;;19.42;97.64
74524;BME280;63074;44.696;10.358;2022-10-15T10:06:57;100061.38;;;19.34;96.97
74524;BME280;63074;44.696;10.358;2022-10-15T10:09:28;100070.22;;;19.44;96.29
74524;BME280;63074;44.696;10.358;2022-10-15T10:12:01;100077.97;;;19.94;95.49
74524;BME280;63074;44.696;10.358;2022-10-15T10:14:40;100074.47;;;19.55;95.11
74524;BME280;63074;44.696;10.358;2022-10-15T10:19:43;100079.81;;;19.79;92.13
74524;BME280;63074;44.696;10.358;2022-10-15T10:22:16;100076.22;;;19.65;92.66
74524;BME280;63074;44.696;10.358;2022-10-15T10:24:42;100072.00;;;19.73;94.78
74524;BME280;63074;44.696;10.358;2022-10-15T10:27:17;100073.69;;;19.69;93.83
74524;BME280;63074;44.696;10.358;2022-10-15T10:29:48;100073.09;;;20.09;92.19
74524;BME280;63074;44.696;10.358;2022-10-15T10:32:28;100073.28;;;19.62;90.98
74524;BME280;63074;44.696;10.358;2022-10-15T10:34:54;100077.47;;;19.73;90.44
74524;BME280;63074;44.696;10.358;2022-10-15T10:37:20;100072.31;;;20.22;87.46
74524;BME280;63074;44.696;10.358;2022-10-15T10:39:52;100066.16;;;20.31;87.87
74524;BME280;63074;44.696;10.358;2022-10-15T10:44:44;100066.81;;;21.01;82.48
74524;BME280;63074;44.696;10.358;2022-10-15T10:49:53;100060.31;;;20.83;80.51
74524;BME280;63074;44.696;10.358;2022-10-15T10:52:28;100042.88;;;21.48;81.04
74524;BME280;63074;44.696;10.358;2022-10-15T10:55:01;100053.66;;;21.31;80.23
74524;BME280;63074;44.696;10.358;2022-10-15T10:57:57;100058.06;;;21.40;79.46
74524;BME280;63074;44.696;10.358;2022-10-15T11:00:44;100039.25;;;21.97;77.29
74524;BME280;63074;44.696;10.358;2022-10-15T11:03:36;100050.03;;;22.16;73.64
74524;BME280;63074;44.696;10.358;2022-10-15T11:06:08;100050.13;;;21.88;73.43
74524;BME280;63074;44.696;10.358;2022-10-15T11:11:56;100045.28;;;22.92;72.71
74524;BME280;63074;44.696;10.358;2022-10-15T11:14:46;100043.72;;;23.08;69.82
74524;BME280;63074;44.696;10.358;2022-10-15T11:17:27;100042.19;;;22.85;70.00
74524;BME280;63074;44.696;10.358;2022-10-15T11:20:19;100040.16;;;22.68;72.32
74524;BME280;63074;44.696;10.358;2022-10-15T11:23:05;100043.94;;;21.25;76.37
74524;BME280;63074;44.696;10.358;2022-10-15T11:26:03;100037.41;;;21.48;75.28
74524;BME280;63074;44.696;10.358;2022-10-15T11:31:08;100037.06;;;22.92;68.84
74524;BME280;63074;44.696;10.358;2022-10-15T11:36:43;100032.44;;;22.70;69.65
74524;BME280;63074;44.696;10.358;2022-10-15T11:39:35;100019.81;;;22.21;72.27
74524;BME280;63074;44.696;10.358;2022-10-15T11:50:18;100021.91;;;28.39;49.82
74524;BME280;63074;44.696;10.358;2022-10-15T11:53:00;100023.19;;;30.59;42.25
74524;BME280;63074;44.696;10.358;2022-10-15T11:55:48;100030.44;;;30.44;42.86
74524;BME280;63074;44.696;10.358;2022-10-15T12:00:56;100023.94;;;26.70;53.93
74524;BME280;63074;44.696;10.358;2022-10-15T12:03:26;100017.72;;;27.74;50.61
74524;BME280;63074;44.696;10.358;2022-10-15T12:05:59;100011.88;;;30.48;42.89
74524;BME280;63074;44.696;10.358;2022-10-15T12:08:31;100007.97;;;28.20;47.23
74524;BME280;63074;44.696;10.358;2022-10-15T12:11:19;100015.72;;;29.24;44.96
74524;BME280;63074;44.696;10.358;2022-10-15T12:14:06;100013.66;;;27.43;49.02
74524;BME280;63074;44.696;10.358;2022-10-15T12:16:40;100005.91;;;23.71;58.98
74524;BME280;63074;44.696;10.358;2022-10-15T12:26:51;99988.06;;;31.19;40.93
74524;BME280;63074;44.696;10.358;2022-10-15T12:29:21;99996.13;;;30.30;42.45
74524;BME280;63074;44.696;10.358;2022-10-15T12:31:53;99999.38;;;29.93;43.86
74524;BME280;63074;44.696;10.358;2022-10-15T12:34:29;99997.59;;;27.73;45.73
74524;BME280;63074;44.696;10.358;2022-10-15T12:37:04;100001.84;;;24.87;54.95
74524;BME280;63074;44.696;10.358;2022-10-15T12:39:31;99995.63;;;27.74;48.89
74524;BME280;63074;44.696;10.358;2022-10-15T12:41:57;99990.09;;;31.82;39.27
74524;BME280;63074;44.696;10.358;2022-10-15T12:44:26;99987.69;;;30.45;40.77
74524;BME280;63074;44.696;10.358;2022-10-15T12:46:52;99987.19;;;30.63;40.82
74524;BME280;63074;44.696;10.358;2022-10-15T12:51:57;99983.44;;;31.61;37.93
74524;BME280;63074;44.696;10.358;2022-10-15T12:54:43;99993.97;;;33.03;35.49
74524;BME280;63074;44.696;10.358;2022-10-15T12:59:58;99982.94;;;35.18;32.67
74524;BME280;63074;44.696;10.358;2022-10-15T13:02:50;99987.47;;;32.78;34.92
74524;BME280;63074;44.696;10.358;2022-10-15T13:05:43;99990.19;;;34.91;33.17
74524;BME280;63074;44.696;10.358;2022-10-15T13:08:24;99981.00;;;34.47;33.31
74524;BME280;63074;44.696;10.358;2022-10-15T13:10:53;99982.53;;;35.09;31.11
74524;BME280;63074;44.696;10.358;2022-10-15T13:13:27;99988.91;;;34.17;33.87
74524;BME280;63074;44.696;10.358;2022-10-15T13:16:01;99974.63;;;34.50;32.40
74524;BME280;63074;44.696;10.358;2022-10-15T13:18:31;99981.75;;;35.08;31.84
74524;BME280;63074;44.696;10.358;2022-10-15T13:20:57;99984.13;;;35.10;32.38
74524;BME280;63074;44.696;10.358;2022-10-15T13:23:29;99987.69;;;34.11;32.67
74524;BME280;63074;44.696;10.358;2022-10-15T13:26:20;99992.69;;;35.83;31.44
74524;BME280;63074;44.696;10.358;2022-10-15T13:28:50;99994.97;;;34.94;31.92
74524;BME280;63074;44.696;10.358;2022-10-15T13:31:20;99998.53;;;34.30;32.37
74524;BME280;63074;44.696;10.358;2022-10-15T13:33:50;99990.38;;;33.72;33.70
74524;BME280;63074;44.696;10.358;2022-10-15T13:36:30;99992.88;;;34.05;32.64
74524;BME280;63074;44.696;10.358;2022-10-15T13:39:03;99986.97;;;34.49;31.69
74524;BME280;63074;44.696;10.358;2022-10-15T13:41:33;99988.91;;;34.13;32.62
74524;BME280;63074;44.696;10.358;2022-10-15T13:43:59;99984.97;;;31.25;36.98
74524;BME280;63074;44.696;10.358;2022-10-15T13:46:30;99981.56;;;32.86;35.10
74524;BME280;63074;44.696;10.358;2022-10-15T13:49:16;99980.19;;;33.25;34.16
74524;BME280;63074;44.696;10.358;2022-10-15T13:51:44;99985.56;;;32.93;35.47
74524;BME280;63074;44.696;10.358;2022-10-15T13:54:15;99980.63;;;32.72;34.78
74524;BME280;63074;44.696;10.358;2022-10-15T13:56:43;99987.41;;;33.29;34.55
74524;BME280;63074;44.696;10.358;2022-10-15T13:59:17;99988.50;;;34.04;33.69
74524;BME280;63074;44.696;10.358;2022-10-15T14:01:46;99976.75;;;33.45;33.90
74524;BME280;63074;44.696;10.358;2022-10-15T14:04:17;99980.09;;;32.55;34.73
74524;BME280;63074;44.696;10.358;2022-10-15T14:09:45;99976.44;;;33.72;33.75
74524;BME280;63074;44.696;10.358;2022-10-15T14:12:11;99975.72;;;33.06;34.62
74524;BME280;63074;44.696;10.358;2022-10-15T14:14:41;99977.44;;;33.28;34.13
74524;BME280;63074;44.696;10.358;2022-10-15T14:17:10;99970.28;;;32.72;34.54
74524;BME280;63074;44.696;10.358;2022-10-15T14:19:46;99971.25;;;32.43;35.50